createdAt,value
2023-10-19T00:00:49.340Z,99474.76
2023-10-19T00:03:19.623Z,99476.21
2023-10-19T00:05:47.452Z,99472.41
2023-10-19T00:08:14.246Z,99474.86
2023-10-19T00:10:43.771Z,99475.77
2023-10-19T00:13:14.535Z,99473.13
2023-10-19T00:15:49.069Z,99477.16
2023-10-19T00:18:16.280Z,99476.77
2023-10-19T00:20:46.704Z,99475.80
2023-10-19T00:23:14.496Z,99479.08
2023-10-19T00:25:45.055Z,99481.09
2023-10-19T00:28:15.886Z,99482.11
2023-10-19T00:30:43.102Z,99479.46
2023-10-19T00:33:21.648Z,99486.92
2023-10-19T00:36:00.349Z,99482.91
2023-10-19T00:38:28.315Z,99478.33
2023-10-19T00:40:59.663Z,99480.27
2023-10-19T00:43:29.498Z,99477.33
2023-10-19T00:45:58.979Z,99474.36
2023-10-19T00:48:26.657Z,99476.90
2023-10-19T00:51:03.963Z,99472.14
2023-10-19T00:53:30.658Z,99470.45
2023-10-19T00:56:01.567Z,99472.98
2023-10-19T00:58:30.995Z,99475.38
2023-10-19T01:01:00.361Z,99479.23
2023-10-19T01:03:32.897Z,99475.36
2023-10-19T01:06:01.447Z,99474.48
2023-10-19T01:08:36.536Z,99476.35
2023-10-19T01:11:15.716Z,99476.73
2023-10-19T01:13:45.292Z,99479.01
2023-10-19T01:16:21.451Z,99479.02
2023-10-19T01:18:54.149Z,99475.38
2023-10-19T01:21:28.062Z,99476.91
2023-10-19T01:23:55.752Z,99474.48
2023-10-19T01:26:22.876Z,99476.19
2023-10-19T01:28:52.321Z,99474.58
2023-10-19T01:31:23.406Z,99475.80
2023-10-19T01:33:50.981Z,99475.89
2023-10-19T01:36:26.877Z,99477.23
2023-10-19T01:39:01.138Z,99484.67
2023-10-19T01:41:28.383Z,99479.66
2023-10-19T01:43:55.210Z,99479.77
2023-10-19T01:46:25.825Z,99476.00
2023-10-19T01:48:57.041Z,99479.70
2023-10-19T01:51:25.395Z,99475.48
2023-10-19T01:53:51.844Z,99475.55
2023-10-19T01:56:18.576Z,99475.09
2023-10-19T01:58:49.150Z,99475.16
2023-10-19T02:01:29.003Z,99477.66
2023-10-19T02:04:00.011Z,99475.30
2023-10-19T02:06:29.345Z,99476.64
2023-10-19T02:09:01.323Z,99471.70
2023-10-19T02:11:29.129Z,99474.97
2023-10-19T02:14:00.304Z,99475.11
2023-10-19T02:16:30.049Z,99475.64
2023-10-19T02:18:57.130Z,99473.01
2023-10-19T02:21:27.543Z,99469.43
2023-10-19T02:23:54.160Z,99472.50
2023-10-19T02:26:30.042Z,99472.16
2023-10-19T02:28:56.812Z,99466.45
2023-10-19T02:31:24.055Z,99469.19
2023-10-19T02:34:03.448Z,99465.39
2023-10-19T02:36:31.344Z,99464.13
2023-10-19T02:39:12.245Z,99465.50
2023-10-19T02:41:40.418Z,99460.04
2023-10-19T02:44:23.413Z,99463.70
2023-10-19T02:47:01.656Z,99461.86
2023-10-19T02:49:36.551Z,99467.48
2023-10-19T02:52:06.217Z,99464.88
2023-10-19T02:54:36.131Z,99462.51
2023-10-19T02:57:07.122Z,99462.27
2023-10-19T02:59:33.715Z,99461.26
2023-10-19T03:02:12.892Z,99459.61
2023-10-19T03:04:42.335Z,99453.99
2023-10-19T03:07:10.437Z,99455.05
2023-10-19T03:09:36.939Z,99462.52
2023-10-19T03:12:04.812Z,99463.06
2023-10-19T03:14:33.059Z,99461.71
2023-10-19T03:17:00.903Z,99463.04
2023-10-19T03:19:28.916Z,99462.02
2023-10-19T03:21:55.785Z,99465.80
2023-10-19T03:24:42.382Z,99466.60
2023-10-19T03:27:17.408Z,99463.88
2023-10-19T03:30:01.129Z,99466.48
2023-10-19T03:32:28.175Z,99460.36
2023-10-19T03:34:56.634Z,99466.49
2023-10-19T03:37:29.716Z,99466.20
2023-10-19T03:39:59.067Z,99466.60
2023-10-19T03:42:40.578Z,99469.19
2023-10-19T03:45:14.486Z,99467.12
2023-10-19T03:47:45.570Z,99471.50
2023-10-19T03:50:16.099Z,99471.09
2023-10-19T03:52:42.958Z,99473.80
2023-10-19T03:55:15.921Z,99468.91
2023-10-19T03:57:47.049Z,99466.84
2023-10-19T04:00:17.233Z,99461.73
2023-10-19T04:02:44.214Z,99466.91
2023-10-19T04:05:21.039Z,99461.36
2023-10-19T04:07:50.499Z,99460.27
2023-10-19T04:10:35.182Z,99460.13
2023-10-19T04:13:02.262Z,99462.25
2023-10-19T04:15:36.105Z,99458.38
2023-10-19T04:18:10.155Z,99457.20
2023-10-19T04:20:53.604Z,99459.98
2023-10-19T04:23:21.736Z,99464.73
2023-10-19T04:25:48.638Z,99467.02
2023-10-19T04:28:15.653Z,99465.29
2023-10-19T04:30:42.407Z,99466.92
2023-10-19T04:33:11.692Z,99467.84
2023-10-19T04:35:38.482Z,99465.80
2023-10-19T04:38:06.983Z,99465.77
2023-10-19T04:40:34.511Z,99467.54
2023-10-19T04:43:03.663Z,99474.09
2023-10-19T04:45:30.437Z,99474.79
2023-10-19T04:47:56.972Z,99470.56
2023-10-19T04:50:23.580Z,99471.71
2023-10-19T04:52:50.131Z,99472.40
2023-10-19T04:55:17.255Z,99476.20
2023-10-19T04:57:43.913Z,99478.16
2023-10-19T05:00:15.052Z,99480.19
2023-10-19T05:02:42.649Z,99481.73
2023-10-19T05:05:09.816Z,99488.04
2023-10-19T05:07:36.498Z,99492.05
2023-10-19T05:10:05.856Z,99486.19
2023-10-19T05:12:32.879Z,99489.40
2023-10-19T05:14:59.437Z,99486.86
2023-10-19T05:17:27.845Z,99481.59
2023-10-19T05:19:54.797Z,99481.95
2023-10-19T05:22:22.253Z,99487.40
2023-10-19T05:24:48.979Z,99489.13
2023-10-19T05:27:17.272Z,99491.08
2023-10-19T05:29:44.322Z,99493.66
2023-10-19T05:32:11.067Z,99491.83
2023-10-19T05:34:37.918Z,99494.36
2023-10-19T05:37:06.102Z,99497.92
2023-10-19T05:39:34.175Z,99500.24
2023-10-19T05:42:04.880Z,99498.33
2023-10-19T05:44:31.682Z,99498.76
2023-10-19T05:47:02.782Z,99502.97
2023-10-19T05:49:32.979Z,99502.07
2023-10-19T05:51:59.654Z,99503.43
2023-10-19T05:54:27.674Z,99505.99
2023-10-19T05:56:54.432Z,99506.22
2023-10-19T05:59:21.401Z,99507.84
2023-10-19T06:01:48.665Z,99515.21
2023-10-19T06:04:15.933Z,99519.52
2023-10-19T06:06:44.177Z,99515.66
2023-10-19T06:09:10.715Z,99518.97
2023-10-19T06:11:38.974Z,99517.27
2023-10-19T06:14:08.112Z,99518.35
2023-10-19T06:16:35.034Z,99518.48
2023-10-19T06:19:01.917Z,99519.88
2023-10-19T06:21:28.950Z,99519.49
2023-10-19T06:23:55.936Z,99521.70
2023-10-19T06:26:22.600Z,99521.77
2023-10-19T06:28:51.523Z,99520.71
2023-10-19T06:31:18.294Z,99514.59
2023-10-19T06:33:44.916Z,99518.08
2023-10-19T06:36:11.496Z,99514.90
2023-10-19T06:38:38.023Z,99511.50
2023-10-19T06:41:14.597Z,99512.78
2023-10-19T06:43:41.517Z,99509.63
2023-10-19T06:46:11.925Z,99507.45
2023-10-19T06:48:39.482Z,99508.79
2023-10-19T06:51:06.631Z,99503.84
2023-10-19T06:53:33.589Z,99502.52
2023-10-19T06:56:01.254Z,99501.75
2023-10-19T06:58:28.132Z,99499.43
2023-10-19T07:00:57.568Z,99497.05
2023-10-19T07:03:24.643Z,99496.66
2023-10-19T07:05:52.725Z,99493.15
2023-10-19T07:08:21.613Z,99492.20
2023-10-19T07:10:50.358Z,99495.95
2023-10-19T07:13:16.996Z,99495.11
2023-10-19T07:15:46.430Z,99492.38
2023-10-19T07:18:14.545Z,99493.64
2023-10-19T07:20:43.255Z,99492.79
2023-10-19T07:23:19.670Z,99493.56
2023-10-19T07:25:48.614Z,99491.66
2023-10-19T07:28:16.638Z,99492.51
2023-10-19T07:30:44.327Z,99488.20
2023-10-19T07:33:11.799Z,99484.50
2023-10-19T07:35:39.621Z,99490.84
2023-10-19T07:38:08.217Z,99486.67
2023-10-19T07:40:35.967Z,99484.73
2023-10-19T07:43:04.364Z,99488.65
2023-10-19T08:37:15.846Z,99458.70
2023-10-19T08:39:44.126Z,99455.48
2023-10-19T08:42:11.071Z,99451.80
2023-10-19T08:44:39.420Z,99445.63
2023-10-19T08:47:06.376Z,99450.23
2023-10-19T08:49:33.506Z,99452.94
2023-10-19T08:52:00.552Z,99456.86
2023-10-19T08:54:28.190Z,99455.35
2023-10-19T08:56:56.269Z,99456.86
2023-10-19T08:59:23.941Z,99462.42
2023-10-19T09:01:51.054Z,99463.83
2023-10-19T09:04:17.983Z,99463.53
2023-10-19T09:06:46.086Z,99463.40
2023-10-19T09:09:21.928Z,99461.77
2023-10-19T09:11:48.887Z,99454.95
2023-10-19T09:14:18.594Z,99453.46
2023-10-19T09:16:58.309Z,99447.94
2023-10-19T09:19:48.283Z,99437.02
2023-10-19T09:22:23.270Z,99437.10
2023-10-19T09:24:50.594Z,99441.28
2023-10-19T09:27:18.007Z,99440.98
2023-10-19T09:29:45.735Z,99445.96
2023-10-19T09:32:14.170Z,99440.98
2023-10-19T09:34:44.243Z,99433.30
2023-10-19T09:37:11.931Z,99434.27
2023-10-19T09:39:38.744Z,99435.50
2023-10-19T09:42:11.807Z,99432.89
2023-10-19T09:44:41.821Z,99436.05
2023-10-19T09:47:20.084Z,99430.22
2023-10-19T09:49:50.675Z,99433.63
2023-10-19T09:58:15.110Z,99423.52
2023-10-19T10:00:50.873Z,99421.90
2023-10-19T10:03:43.863Z,99416.05
2023-10-19T10:06:12.732Z,99406.42
2023-10-19T10:08:40.068Z,99407.34
2023-10-19T10:11:17.482Z,99405.33
2023-10-19T10:13:45.908Z,99403.05
2023-10-19T10:16:15.814Z,99407.09
2023-10-19T10:18:44.933Z,99409.83
2023-10-19T10:21:13.187Z,99396.23
2023-10-19T10:23:44.867Z,99395.29
2023-10-19T10:26:15.289Z,99395.36
2023-10-19T10:28:42.628Z,99390.11
2023-10-19T10:31:21.280Z,99390.93
2023-10-19T10:33:50.522Z,99384.25
2023-10-19T10:36:20.218Z,99379.88
2023-10-19T10:38:51.374Z,99375.51
2023-10-19T10:41:22.633Z,99376.73
2023-10-19T10:43:54.294Z,99369.88
2023-10-19T10:46:22.506Z,99374.09
2023-10-19T10:48:49.665Z,99375.81
2023-10-19T10:51:29.382Z,99374.15
2023-10-19T10:53:57.128Z,99373.54
2023-10-19T10:56:24.423Z,99366.84
2023-10-19T10:58:51.668Z,99375.45
2023-10-19T11:01:33.413Z,99364.91
2023-10-19T11:04:08.360Z,99362.61
2023-10-19T11:06:49.763Z,99366.05
2023-10-19T11:09:20.287Z,99353.19
2023-10-19T11:11:47.212Z,99360.31
2023-10-19T11:14:14.218Z,99352.77
2023-10-19T11:16:41.308Z,99356.85
2023-10-19T11:19:10.001Z,99355.04
2023-10-19T11:21:36.739Z,99355.05
2023-10-19T11:24:03.820Z,99352.73
2023-10-19T11:26:30.905Z,99341.84
2023-10-19T11:29:04.793Z,99350.92
2023-10-19T11:31:38.379Z,99342.60
2023-10-19T11:34:05.446Z,99335.56
2023-10-19T11:36:35.028Z,99331.36
2023-10-19T11:39:04.999Z,99329.59
2023-10-19T11:41:32.051Z,99328.39
2023-10-19T11:43:59.173Z,99321.05
2023-10-19T11:46:26.039Z,99317.16
2023-10-19T11:48:53.062Z,99311.00
2023-10-19T11:51:19.863Z,99313.02
2023-10-19T11:53:46.571Z,99309.42
2023-10-19T11:56:30.532Z,99308.10
2023-10-19T11:58:57.378Z,99294.88
2023-10-19T12:01:25.783Z,99290.70
2023-10-19T12:03:52.612Z,99300.08
2023-10-19T12:06:19.684Z,99291.07
2023-10-19T12:08:46.633Z,99286.63
2023-10-19T12:11:17.227Z,99279.60
2023-10-19T12:13:44.108Z,99278.20
2023-10-19T12:16:16.280Z,99278.06
2023-10-19T12:18:44.099Z,99279.69
2023-10-19T12:21:18.430Z,99285.77
2023-10-19T12:23:45.254Z,99283.36
2023-10-19T12:26:12.207Z,99281.84
2023-10-19T12:28:40.057Z,99285.55
2023-10-19T12:31:09.486Z,99283.85
2023-10-19T12:33:37.229Z,99285.88
2023-10-19T12:36:22.853Z,99279.91
2023-10-19T12:38:50.345Z,99277.42
2023-10-19T12:41:17.911Z,99273.10
2023-10-19T12:43:44.496Z,99274.00
2023-10-19T12:46:13.295Z,99276.44
2023-10-19T12:48:43.521Z,99271.30
2023-10-19T12:51:12.061Z,99271.42
2023-10-19T12:53:41.960Z,99267.95
2023-10-19T12:56:10.811Z,99268.04
2023-10-19T12:58:38.642Z,99267.50
2023-10-19T13:01:17.912Z,99260.27
2023-10-19T13:03:49.922Z,99254.52
2023-10-19T13:06:17.455Z,99247.45
2023-10-19T13:08:44.302Z,99237.27
2023-10-19T13:11:18.036Z,99234.30
2023-10-19T13:13:47.012Z,99235.15
2023-10-19T13:16:15.563Z,99229.70
2023-10-19T13:18:42.427Z,99223.61
2023-10-19T13:21:17.291Z,99219.20
2023-10-19T13:23:44.811Z,99219.02
2023-10-19T13:26:18.063Z,99213.33
2023-10-19T13:28:45.385Z,99213.95
2023-10-19T13:31:14.496Z,99210.65
2023-10-19T13:33:42.488Z,99206.24
2023-10-19T13:36:09.497Z,99204.89
2023-10-19T13:38:36.178Z,99204.55
2023-10-19T13:41:10.545Z,99205.00
2023-10-19T13:43:40.765Z,99195.58
2023-10-19T13:46:07.705Z,99189.42
2023-10-19T13:48:34.640Z,99186.41
2023-10-19T13:51:01.357Z,99179.85
2023-10-19T13:53:28.184Z,99182.02
2023-10-19T13:55:55.699Z,99177.01
2023-10-19T13:58:23.837Z,99167.50
2023-10-19T14:00:50.597Z,99160.28
2023-10-19T14:03:17.494Z,99161.39
2023-10-19T14:05:48.833Z,99165.48
2023-10-19T14:08:17.073Z,99163.48
2023-10-19T14:10:44.043Z,99165.14
2023-10-19T14:13:11.978Z,99161.29
2023-10-19T14:15:39.280Z,99155.22
2023-10-19T14:18:06.220Z,99155.31
2023-10-19T14:20:34.565Z,99154.48
2023-10-19T14:23:03.138Z,99153.42
2023-10-19T14:25:30.011Z,99149.87
2023-10-19T14:27:59.926Z,99149.29
2023-10-19T14:30:28.927Z,99157.02
2023-10-19T14:32:55.726Z,99159.31
2023-10-19T14:35:23.717Z,99159.37
2023-10-19T14:37:55.133Z,99162.27
2023-10-19T14:40:26.500Z,99165.13
2023-10-19T14:42:56.202Z,99161.30
2023-10-19T14:45:32.916Z,99160.52
2023-10-19T14:48:03.183Z,99160.80
2023-10-19T14:50:30.848Z,99156.98
2023-10-19T14:52:57.748Z,99158.58
2023-10-19T14:55:25.035Z,99162.05
2023-10-19T14:57:54.044Z,99156.79
2023-10-19T15:00:26.737Z,99156.96
2023-10-19T15:03:00.912Z,99151.41
2023-10-19T15:05:28.932Z,99140.45
2023-10-19T15:07:58.792Z,99133.64
2023-10-19T15:10:26.736Z,99132.56
2023-10-19T15:12:54.083Z,99130.49
2023-10-19T15:15:21.510Z,99136.85
2023-10-19T15:17:48.460Z,99141.02
2023-10-19T15:20:15.772Z,99137.97
2023-10-19T15:22:44.150Z,99130.92
2023-10-19T15:25:12.763Z,99127.30
2023-10-19T15:27:40.749Z,99122.73
2023-10-19T15:30:08.435Z,99126.77
2023-10-19T15:32:39.007Z,99121.95
2023-10-19T15:35:06.076Z,99113.12
2023-10-19T15:37:33.053Z,99108.39
2023-10-19T15:39:59.902Z,99102.62
2023-10-19T15:42:26.645Z,99099.67
2023-10-19T15:44:53.321Z,99099.23
2023-10-19T15:47:20.238Z,99096.23
2023-10-19T15:49:52.622Z,99099.63
2023-10-19T15:52:23.146Z,99102.98
2023-10-19T15:54:51.049Z,99099.20
2023-10-19T15:57:20.219Z,99092.96
2023-10-19T15:59:47.217Z,99086.27
2023-10-19T16:02:14.832Z,99083.30
2023-10-19T16:04:42.481Z,99082.21
2023-10-19T16:07:10.812Z,99079.02
2023-10-19T16:09:38.190Z,99082.48
2023-10-19T16:12:05.623Z,99084.89
2023-10-19T16:14:32.695Z,99087.48
2023-10-19T16:16:59.681Z,99080.31
2023-10-19T16:19:26.595Z,99079.98
2023-10-19T16:21:53.302Z,99079.21
2023-10-19T16:24:19.963Z,99078.31
2023-10-19T16:26:46.988Z,99073.98
2023-10-19T16:29:17.086Z,99064.67
2023-10-19T16:31:45.070Z,99060.04
2023-10-19T16:34:13.023Z,99055.13
2023-10-19T16:36:40.318Z,99047.45
2023-10-19T16:39:13.513Z,99035.19
2023-10-19T16:41:40.369Z,99029.66
2023-10-19T16:44:07.720Z,99027.92
2023-10-19T16:46:34.613Z,99023.08
2023-10-19T16:49:01.355Z,99023.27
2023-10-19T16:51:29.018Z,99016.02
2023-10-19T16:53:57.385Z,99017.76
2023-10-19T16:56:24.231Z,99014.02
2023-10-19T16:58:50.974Z,99009.15
2023-10-19T17:01:17.871Z,99006.45
2023-10-19T17:03:45.442Z,99001.74
2023-10-19T17:06:12.719Z,99000.46
2023-10-19T17:08:40.490Z,98997.09
2023-10-19T17:11:08.481Z,99002.93
2023-10-19T17:13:36.352Z,99001.68
2023-10-19T17:16:03.503Z,99004.30
2023-10-19T17:18:30.536Z,99007.05
2023-10-19T17:20:57.351Z,99006.82
2023-10-19T17:23:24.350Z,99003.70
2023-10-19T17:25:51.592Z,98995.17
2023-10-19T17:28:18.455Z,98997.59
2023-10-19T17:30:46.500Z,99000.99
2023-10-19T17:33:13.761Z,99000.23
2023-10-19T17:35:40.705Z,99003.04
2023-10-19T17:38:09.033Z,99003.35
2023-10-19T17:40:35.934Z,98998.54
2023-10-19T17:43:02.844Z,99001.66
2023-10-19T17:45:30.994Z,98998.88
2023-10-19T17:47:57.953Z,99001.55
2023-10-19T17:50:25.996Z,98994.66
2023-10-19T17:52:52.988Z,98988.77
2023-10-19T17:55:20.967Z,98983.42
2023-10-19T17:57:50.991Z,98982.13
2023-10-19T18:00:21.077Z,98977.86
2023-10-19T18:02:48.471Z,98969.42
2023-10-19T18:05:17.142Z,98963.95
2023-10-19T18:07:44.624Z,98968.98
2023-10-19T18:10:14.468Z,98963.64
2023-10-19T18:12:41.346Z,98963.88
2023-10-19T18:15:09.199Z,98954.06
2023-10-19T18:17:36.272Z,98951.39
2023-10-19T18:20:08.355Z,98948.36
2023-10-19T18:22:36.614Z,98942.27
2023-10-19T18:25:03.804Z,98940.34
2023-10-19T18:27:30.847Z,98939.79
2023-10-19T18:29:57.659Z,98930.09
2023-10-19T18:32:24.502Z,98924.60
2023-10-19T18:34:51.554Z,98925.51
2023-10-19T18:37:18.293Z,98921.06
2023-10-19T18:39:45.125Z,98927.30
2023-10-19T18:42:12.063Z,98914.33
2023-10-19T18:44:39.214Z,98909.44
2023-10-19T18:47:06.345Z,98906.63
2023-10-19T18:49:35.177Z,98902.69
2023-10-19T18:52:07.655Z,98905.02
2023-10-19T18:54:34.407Z,98899.86
2023-10-19T18:57:01.226Z,98894.88
2023-10-19T18:59:27.960Z,98892.77
2023-10-19T19:01:54.894Z,98893.73
2023-10-19T19:04:22.735Z,98895.43
2023-10-19T19:06:49.582Z,98900.68
2023-10-19T19:09:18.208Z,98897.27
2023-10-19T19:11:46.570Z,98895.17
2023-10-19T19:14:13.363Z,98899.27
2023-10-19T19:16:40.917Z,98897.45
2023-10-19T19:19:08.183Z,98891.77
2023-10-19T19:21:35.726Z,98892.82
2023-10-19T19:24:02.698Z,98887.15
2023-10-19T19:26:29.620Z,98882.00
2023-10-19T19:28:57.213Z,98880.24
2023-10-19T19:31:24.495Z,98874.90
2023-10-19T19:33:51.659Z,98871.59
2023-10-19T19:36:18.522Z,98862.86
2023-10-19T19:38:46.147Z,98862.08
2023-10-19T19:41:13.627Z,98858.26
2023-10-19T19:43:40.554Z,98851.86
2023-10-19T19:46:07.666Z,98850.02
2023-10-19T19:48:34.407Z,98849.36
2023-10-19T19:51:01.265Z,98853.52
2023-10-19T19:53:27.883Z,98857.37
2023-10-19T19:55:54.445Z,98866.58
2023-10-19T19:58:21.181Z,98869.51
2023-10-19T20:00:47.725Z,98876.80
2023-10-19T20:03:14.640Z,98879.77
2023-10-19T20:05:42.637Z,98881.78
2023-10-19T20:08:12.089Z,98876.14
2023-10-19T20:10:43.397Z,98866.18
2023-10-19T20:13:10.703Z,98861.74
2023-10-19T20:15:39.428Z,98856.34
2023-10-19T20:18:06.120Z,98850.45
2023-10-19T20:20:33.905Z,98844.91
2023-10-19T20:23:00.917Z,98848.72
2023-10-19T20:25:28.411Z,98847.28
2023-10-19T20:27:56.196Z,98842.44
2023-10-19T20:30:23.554Z,98837.17
2023-10-19T20:32:50.578Z,98831.59
2023-10-19T20:35:18.319Z,98821.44
2023-10-19T20:37:44.919Z,98822.06
2023-10-19T20:40:20.060Z,98820.27
2023-10-19T20:42:52.336Z,98817.70
2023-10-19T20:45:19.180Z,98814.83
2023-10-19T20:47:56.672Z,98808.09
2023-10-19T20:50:24.242Z,98796.55
2023-10-19T20:52:53.028Z,98793.77
2023-10-19T20:55:20.007Z,98794.20
2023-10-19T20:57:49.810Z,98782.28
2023-10-19T21:00:16.981Z,98766.64
2023-10-19T21:02:46.611Z,98754.54
2023-10-19T21:05:19.118Z,98742.53
2023-10-19T21:07:49.378Z,98740.30
2023-10-19T21:10:19.127Z,98735.85
2023-10-19T21:12:45.808Z,98736.40
2023-10-19T21:15:13.268Z,98728.80
2023-10-19T21:17:51.042Z,98723.05
2023-10-19T21:20:18.683Z,98713.84
2023-10-19T21:22:49.657Z,98717.20
2023-10-19T21:25:17.836Z,98721.80
2023-10-19T21:27:45.097Z,98718.42
2023-10-19T21:30:13.601Z,98714.86
2023-10-19T21:32:42.723Z,98715.29
2023-10-19T21:35:10.180Z,98718.02
2023-10-19T21:37:37.153Z,98708.35
2023-10-19T21:40:06.380Z,98706.36
2023-10-19T21:42:33.083Z,98708.38
2023-10-19T21:44:59.825Z,98709.17
2023-10-19T21:47:26.549Z,98703.73
2023-10-19T21:49:53.829Z,98703.13
2023-10-19T21:52:24.244Z,98702.65
2023-10-19T21:54:51.406Z,98699.34
2023-10-19T21:57:18.329Z,98692.54
2023-10-19T21:59:45.471Z,98692.56
2023-10-19T22:02:12.126Z,98689.91
2023-10-19T22:04:38.898Z,98688.86
2023-10-19T22:07:05.922Z,98689.36
2023-10-19T22:12:18.049Z,98682.01
2023-10-19T22:14:46.680Z,98683.13
2023-10-19T22:17:16.632Z,98679.69
2023-10-19T22:19:44.531Z,98677.11
2023-10-19T22:22:13.176Z,98676.40
2023-10-19T22:24:40.533Z,98677.58
2023-10-19T22:27:08.225Z,98672.81
2023-10-19T22:29:35.671Z,98669.30
2023-10-19T22:32:08.541Z,98672.16
2023-10-19T22:34:36.074Z,98663.73
2023-10-19T22:37:04.433Z,98661.33
2023-10-19T22:39:31.889Z,98658.39
2023-10-19T22:41:59.309Z,98653.84
2023-10-19T22:44:26.726Z,98655.77
2023-10-19T22:46:54.287Z,98654.31
2023-10-19T22:49:23.565Z,98651.91
2023-10-19T22:51:50.929Z,98647.61
2023-10-19T22:54:18.343Z,98646.42
2023-10-19T22:56:45.786Z,98640.95
2023-10-19T22:59:13.205Z,98642.31
2023-10-19T23:01:41.311Z,98640.02
2023-10-19T23:04:08.819Z,98642.39
2023-10-19T23:06:36.419Z,98636.58
2023-10-19T23:09:05.189Z,98633.13
2023-10-19T23:11:32.800Z,98631.00
2023-10-19T23:14:04.916Z,98631.48
2023-10-19T23:16:37.430Z,98628.80
2023-10-19T23:19:04.927Z,98623.28
2023-10-19T23:21:34.303Z,98623.60
2023-10-19T23:24:01.901Z,98621.47
2023-10-19T23:26:30.773Z,98616.19
2023-10-19T23:29:04.696Z,98616.05
2023-10-19T23:31:34.856Z,98613.14
2023-10-19T23:34:04.914Z,98608.14
2023-10-19T23:36:32.539Z,98604.19
2023-10-19T23:39:04.628Z,98600.00
2023-10-19T23:41:32.150Z,98593.61
2023-10-19T23:43:59.729Z,98585.63
2023-10-19T23:46:27.650Z,98582.47
2023-10-19T23:48:55.032Z,98579.70
2023-10-19T23:51:22.701Z,98574.77
2023-10-19T23:53:52.062Z,98570.80
2023-10-19T23:56:20.199Z,98568.53
2023-10-19T23:58:47.564Z,98568.30
